sensor_id;sensor_type;location;lat;lon;timestamp;P1;durP1;ratioP1;P2;durP2;ratioP2
52934;SDS011;38802;50.198;19.796;2022-12-18T00:02:25;47.30;;;24.90;;
52934;SDS011;38802;50.198;19.796;2022-12-18T00:04:53;48.00;;;23.80;;
52934;SDS011;38802;50.198;19.796;2022-12-18T00:07:22;49.00;;;23.80;;
52934;SDS011;38802;50.198;19.796;2022-12-18T00:09:50;48.60;;;22.50;;
52934;SDS011;38802;50.198;19.796;2022-12-18T00:12:18;45.50;;;20.80;;
52934;SDS011;38802;50.198;19.796;2022-12-18T00:14:46;49.90;;;22.20;;
52934;SDS011;38802;50.198;19.796;2022-12-18T00:17:14;41.50;;;21.10;;
52934;SDS011;38802;50.198;19.796;2022-12-18T00:19:42;45.90;;;20.10;;
52934;SDS011;38802;50.198;19.796;2022-12-18T00:22:11;40.10;;;22.30;;
52934;SDS011;38802;50.198;19.796;2022-12-18T00:24:39;42.90;;;21.50;;
52934;SDS011;38802;50.198;19.796;2022-12-18T00:27:07;44.20;;;21.20;;
52934;SDS011;38802;50.198;19.796;2022-12-18T00:29:35;43.40;;;22.20;;
52934;SDS011;38802;50.198;19.796;2022-12-18T00:32:03;42.10;;;20.10;;
52934;SDS011;38802;50.198;19.796;2022-12-18T00:34:32;38.20;;;20.20;;
52934;SDS011;38802;50.198;19.796;2022-12-18T00:37:00;33.60;;;20.10;;
52934;SDS011;38802;50.198;19.796;2022-12-18T00:39:28;39.30;;;20.70;;
52934;SDS011;38802;50.198;19.796;2022-12-18T00:41:56;38.40;;;19.40;;
52934;SDS011;38802;50.198;19.796;2022-12-18T00:47:11;41.20;;;19.20;;
52934;SDS011;38802;50.198;19.796;2022-12-18T00:49:39;33.20;;;17.80;;
52934;SDS011;38802;50.198;19.796;2022-12-18T00:52:07;44.40;;;19.90;;
52934;SDS011;38802;50.198;19.796;2022-12-18T00:54:35;41.10;;;19.60;;
52934;SDS011;38802;50.198;19.796;2022-12-18T00:57:03;36.60;;;18.70;;
52934;SDS011;38802;50.198;19.796;2022-12-18T00:59:31;41.90;;;21.40;;
52934;SDS011;38802;50.198;19.796;2022-12-18T01:01:59;42.60;;;21.20;;
52934;SDS011;38802;50.198;19.796;2022-12-18T01:04:28;37.70;;;20.10;;
52934;SDS011;38802;50.198;19.796;2022-12-18T01:06:58;34.60;;;17.80;;
52934;SDS011;38802;50.198;19.796;2022-12-18T01:09:27;40.00;;;20.90;;
52934;SDS011;38802;50.198;19.796;2022-12-18T01:11:55;36.70;;;20.30;;
52934;SDS011;38802;50.198;19.796;2022-12-18T01:14:24;43.10;;;22.00;;
52934;SDS011;38802;50.198;19.796;2022-12-18T01:16:53;33.70;;;19.50;;
52934;SDS011;38802;50.198;19.796;2022-12-18T01:19:21;38.00;;;20.30;;
52934;SDS011;38802;50.198;19.796;2022-12-18T01:21:49;32.30;;;16.90;;
52934;SDS011;38802;50.198;19.796;2022-12-18T01:24:17;35.80;;;19.30;;
52934;SDS011;38802;50.198;19.796;2022-12-18T01:26:45;36.90;;;21.30;;
52934;SDS011;38802;50.198;19.796;2022-12-18T01:29:14;40.30;;;20.50;;
52934;SDS011;38802;50.198;19.796;2022-12-18T01:31:42;36.40;;;20.10;;
52934;SDS011;38802;50.198;19.796;2022-12-18T01:34:11;32.50;;;17.50;;
52934;SDS011;38802;50.198;19.796;2022-12-18T01:36:39;35.20;;;19.50;;
52934;SDS011;38802;50.198;19.796;2022-12-18T01:39:10;38.50;;;19.60;;
52934;SDS011;38802;50.198;19.796;2022-12-18T01:41:42;34.50;;;19.50;;
52934;SDS011;38802;50.198;19.796;2022-12-18T01:53:10;32.60;;;18.30;;
52934;SDS011;38802;50.198;19.796;2022-12-18T01:55:59;40.10;;;19.50;;
52934;SDS011;38802;50.198;19.796;2022-12-18T02:01:01;37.90;;;19.40;;
52934;SDS011;38802;50.198;19.796;2022-12-18T02:03:32;40.40;;;18.90;;
52934;SDS011;38802;50.198;19.796;2022-12-18T02:14:17;36.40;;;19.30;;
52934;SDS011;38802;50.198;19.796;2022-12-18T02:16:55;38.90;;;20.10;;
52934;SDS011;38802;50.198;19.796;2022-12-18T02:19:59;34.10;;;18.80;;
52934;SDS011;38802;50.198;19.796;2022-12-18T02:22:51;45.90;;;20.40;;
52934;SDS011;38802;50.198;19.796;2022-12-18T02:28:28;40.20;;;21.70;;
52934;SDS011;38802;50.198;19.796;2022-12-18T02:31:01;43.80;;;21.40;;
52934;SDS011;38802;50.198;19.796;2022-12-18T02:33:32;38.20;;;20.80;;
52934;SDS011;38802;50.198;19.796;2022-12-18T02:36:03;34.60;;;19.00;;
52934;SDS011;38802;50.198;19.796;2022-12-18T02:38:33;35.50;;;18.80;;
52934;SDS011;38802;50.198;19.796;2022-12-18T02:41:07;37.30;;;20.30;;
52934;SDS011;38802;50.198;19.796;2022-12-18T02:43:36;36.50;;;18.80;;
52934;SDS011;38802;50.198;19.796;2022-12-18T02:51:53;33.80;;;18.40;;
52934;SDS011;38802;50.198;19.796;2022-12-18T02:57:02;40.40;;;21.40;;
52934;SDS011;38802;50.198;19.796;2022-12-18T02:59:46;42.20;;;20.40;;
52934;SDS011;38802;50.198;19.796;2022-12-18T03:02:47;45.00;;;21.80;;
52934;SDS011;38802;50.198;19.796;2022-12-18T03:05:23;39.70;;;20.80;;
52934;SDS011;38802;50.198;19.796;2022-12-18T03:08:03;44.10;;;20.70;;
52934;SDS011;38802;50.198;19.796;2022-12-18T03:10:48;44.60;;;22.70;;
52934;SDS011;38802;50.198;19.796;2022-12-18T03:16:11;41.70;;;20.90;;
52934;SDS011;38802;50.198;19.796;2022-12-18T03:18:51;52.50;;;23.20;;
52934;SDS011;38802;50.198;19.796;2022-12-18T03:21:26;41.10;;;20.40;;
52934;SDS011;38802;50.198;19.796;2022-12-18T03:24:01;40.30;;;21.60;;
52934;SDS011;38802;50.198;19.796;2022-12-18T03:26:34;42.20;;;20.30;;
52934;SDS011;38802;50.198;19.796;2022-12-18T03:29:09;45.70;;;21.00;;
52934;SDS011;38802;50.198;19.796;2022-12-18T03:31:41;41.50;;;21.80;;
52934;SDS011;38802;50.198;19.796;2022-12-18T03:34:17;45.60;;;21.00;;
52934;SDS011;38802;50.198;19.796;2022-12-18T03:36:50;42.00;;;21.60;;
52934;SDS011;38802;50.198;19.796;2022-12-18T03:39:19;45.20;;;22.80;;
52934;SDS011;38802;50.198;19.796;2022-12-18T03:41:58;45.50;;;22.20;;
52934;SDS011;38802;50.198;19.796;2022-12-18T03:50:29;50.10;;;23.60;;
52934;SDS011;38802;50.198;19.796;2022-12-18T03:53:12;49.70;;;23.10;;
52934;SDS011;38802;50.198;19.796;2022-12-18T03:55:56;55.90;;;23.60;;
52934;SDS011;38802;50.198;19.796;2022-12-18T03:58:32;57.20;;;24.10;;
52934;SDS011;38802;50.198;19.796;2022-12-18T04:01:14;58.50;;;24.10;;
52934;SDS011;38802;50.198;19.796;2022-12-18T04:03:44;61.10;;;23.80;;
52934;SDS011;38802;50.198;19.796;2022-12-18T04:06:18;53.10;;;24.30;;
52934;SDS011;38802;50.198;19.796;2022-12-18T04:08:47;57.20;;;24.20;;
52934;SDS011;38802;50.198;19.796;2022-12-18T04:11:18;46.80;;;22.90;;
52934;SDS011;38802;50.198;19.796;2022-12-18T04:13:47;54.80;;;25.20;;
52934;SDS011;38802;50.198;19.796;2022-12-18T04:16:19;55.40;;;23.20;;
52934;SDS011;38802;50.198;19.796;2022-12-18T04:18:50;53.70;;;25.50;;
52934;SDS011;38802;50.198;19.796;2022-12-18T04:21:19;50.30;;;24.10;;
52934;SDS011;38802;50.198;19.796;2022-12-18T04:23:48;45.90;;;23.80;;
52934;SDS011;38802;50.198;19.796;2022-12-18T04:26:17;48.00;;;25.30;;
52934;SDS011;38802;50.198;19.796;2022-12-18T04:28:53;51.60;;;26.20;;
52934;SDS011;38802;50.198;19.796;2022-12-18T04:31:21;54.90;;;26.10;;
52934;SDS011;38802;50.198;19.796;2022-12-18T04:33:50;58.70;;;26.80;;
52934;SDS011;38802;50.198;19.796;2022-12-18T04:36:18;50.90;;;24.50;;
52934;SDS011;38802;50.198;19.796;2022-12-18T04:38:47;46.00;;;23.20;;
52934;SDS011;38802;50.198;19.796;2022-12-18T04:41:16;45.40;;;22.50;;
52934;SDS011;38802;50.198;19.796;2022-12-18T04:43:46;52.70;;;26.10;;
52934;SDS011;38802;50.198;19.796;2022-12-18T04:46:14;56.40;;;24.20;;
52934;SDS011;38802;50.198;19.796;2022-12-18T04:48:44;58.10;;;28.40;;
52934;SDS011;38802;50.198;19.796;2022-12-18T04:51:14;68.90;;;27.10;;
52934;SDS011;38802;50.198;19.796;2022-12-18T04:53:42;54.40;;;25.40;;
52934;SDS011;38802;50.198;19.796;2022-12-18T04:56:11;54.60;;;25.50;;
52934;SDS011;38802;50.198;19.796;2022-12-18T04:58:42;60.10;;;26.10;;
52934;SDS011;38802;50.198;19.796;2022-12-18T05:01:12;62.60;;;26.40;;
52934;SDS011;38802;50.198;19.796;2022-12-18T05:03:42;62.60;;;27.70;;
52934;SDS011;38802;50.198;19.796;2022-12-18T05:06:11;67.00;;;27.20;;
52934;SDS011;38802;50.198;19.796;2022-12-18T05:08:40;57.70;;;27.10;;
52934;SDS011;38802;50.198;19.796;2022-12-18T05:11:10;62.20;;;28.20;;
52934;SDS011;38802;50.198;19.796;2022-12-18T05:13:40;63.90;;;28.00;;
52934;SDS011;38802;50.198;19.796;2022-12-18T05:16:08;66.20;;;27.30;;
52934;SDS011;38802;50.198;19.796;2022-12-18T05:18:37;61.50;;;27.60;;
52934;SDS011;38802;50.198;19.796;2022-12-18T05:21:05;72.90;;;29.50;;
52934;SDS011;38802;50.198;19.796;2022-12-18T05:23:34;67.30;;;28.30;;
52934;SDS011;38802;50.198;19.796;2022-12-18T05:26:03;66.00;;;30.70;;
52934;SDS011;38802;50.198;19.796;2022-12-18T05:28:33;63.80;;;29.20;;
52934;SDS011;38802;50.198;19.796;2022-12-18T05:31:03;66.20;;;29.30;;
52934;SDS011;38802;50.198;19.796;2022-12-18T05:33:32;75.80;;;29.40;;
52934;SDS011;38802;50.198;19.796;2022-12-18T05:36:02;80.40;;;30.50;;
52934;SDS011;38802;50.198;19.796;2022-12-18T05:38:35;71.70;;;31.20;;
52934;SDS011;38802;50.198;19.796;2022-12-18T05:41:04;75.60;;;30.50;;
52934;SDS011;38802;50.198;19.796;2022-12-18T05:43:38;70.70;;;30.80;;
52934;SDS011;38802;50.198;19.796;2022-12-18T05:46:09;74.00;;;30.70;;
52934;SDS011;38802;50.198;19.796;2022-12-18T05:48:41;75.70;;;28.90;;
52934;SDS011;38802;50.198;19.796;2022-12-18T05:51:11;73.90;;;30.30;;
52934;SDS011;38802;50.198;19.796;2022-12-18T05:53:44;74.50;;;29.50;;
52934;SDS011;38802;50.198;19.796;2022-12-18T05:56:15;67.60;;;27.00;;
52934;SDS011;38802;50.198;19.796;2022-12-18T05:58:47;67.40;;;27.00;;
52934;SDS011;38802;50.198;19.796;2022-12-18T06:01:21;76.90;;;30.40;;
52934;SDS011;38802;50.198;19.796;2022-12-18T06:03:52;75.40;;;29.60;;
52934;SDS011;38802;50.198;19.796;2022-12-18T06:06:22;71.10;;;29.90;;
52934;SDS011;38802;50.198;19.796;2022-12-18T06:08:51;71.30;;;29.90;;
52934;SDS011;38802;50.198;19.796;2022-12-18T06:11:22;69.90;;;28.00;;
52934;SDS011;38802;50.198;19.796;2022-12-18T06:13:53;67.80;;;30.30;;
52934;SDS011;38802;50.198;19.796;2022-12-18T06:16:26;74.40;;;31.50;;
52934;SDS011;38802;50.198;19.796;2022-12-18T06:18:56;70.50;;;27.70;;
52934;SDS011;38802;50.198;19.796;2022-12-18T06:21:25;69.40;;;28.40;;
52934;SDS011;38802;50.198;19.796;2022-12-18T06:23:54;71.20;;;28.40;;
52934;SDS011;38802;50.198;19.796;2022-12-18T06:26:23;71.10;;;30.40;;
52934;SDS011;38802;50.198;19.796;2022-12-18T06:28:55;65.10;;;28.60;;
52934;SDS011;38802;50.198;19.796;2022-12-18T06:31:24;76.00;;;31.00;;
52934;SDS011;38802;50.198;19.796;2022-12-18T06:33:54;65.50;;;29.50;;
52934;SDS011;38802;50.198;19.796;2022-12-18T06:36:22;73.50;;;28.70;;
52934;SDS011;38802;50.198;19.796;2022-12-18T06:38:50;70.20;;;28.60;;
52934;SDS011;38802;50.198;19.796;2022-12-18T06:41:19;71.50;;;30.30;;
52934;SDS011;38802;50.198;19.796;2022-12-18T06:43:49;72.80;;;29.70;;
52934;SDS011;38802;50.198;19.796;2022-12-18T06:46:20;64.00;;;29.60;;
52934;SDS011;38802;50.198;19.796;2022-12-18T06:48:49;71.50;;;30.10;;
52934;SDS011;38802;50.198;19.796;2022-12-18T06:51:21;71.20;;;30.90;;
52934;SDS011;38802;50.198;19.796;2022-12-18T06:53:51;75.70;;;34.10;;
52934;SDS011;38802;50.198;19.796;2022-12-18T06:56:19;83.00;;;34.30;;
52934;SDS011;38802;50.198;19.796;2022-12-18T06:58:47;79.80;;;31.00;;
52934;SDS011;38802;50.198;19.796;2022-12-18T07:01:15;80.60;;;32.70;;
52934;SDS011;38802;50.198;19.796;2022-12-18T07:03:44;77.60;;;32.20;;
52934;SDS011;38802;50.198;19.796;2022-12-18T07:06:13;80.40;;;31.10;;
52934;SDS011;38802;50.198;19.796;2022-12-18T07:08:43;92.20;;;33.90;;
52934;SDS011;38802;50.198;19.796;2022-12-18T07:11:12;82.80;;;32.80;;
52934;SDS011;38802;50.198;19.796;2022-12-18T07:13:41;81.20;;;30.80;;
52934;SDS011;38802;50.198;19.796;2022-12-18T07:16:19;80.10;;;30.80;;
52934;SDS011;38802;50.198;19.796;2022-12-18T07:18:52;94.90;;;34.50;;
52934;SDS011;38802;50.198;19.796;2022-12-18T07:21:23;87.30;;;35.70;;
52934;SDS011;38802;50.198;19.796;2022-12-18T07:23:52;82.30;;;33.00;;
52934;SDS011;38802;50.198;19.796;2022-12-18T07:26:20;88.70;;;32.20;;
52934;SDS011;38802;50.198;19.796;2022-12-18T07:28:49;78.90;;;30.90;;
52934;SDS011;38802;50.198;19.796;2022-12-18T07:31:19;76.00;;;30.80;;
52934;SDS011;38802;50.198;19.796;2022-12-18T07:33:50;89.90;;;33.40;;
52934;SDS011;38802;50.198;19.796;2022-12-18T07:36:19;81.70;;;31.50;;
52934;SDS011;38802;50.198;19.796;2022-12-18T07:38:50;95.70;;;33.30;;
52934;SDS011;38802;50.198;19.796;2022-12-18T07:41:20;80.50;;;33.10;;
52934;SDS011;38802;50.198;19.796;2022-12-18T07:43:48;80.20;;;33.20;;
52934;SDS011;38802;50.198;19.796;2022-12-18T07:46:17;82.30;;;32.20;;
52934;SDS011;38802;50.198;19.796;2022-12-18T07:48:46;88.90;;;32.10;;
52934;SDS011;38802;50.198;19.796;2022-12-18T07:51:17;83.50;;;31.00;;
52934;SDS011;38802;50.198;19.796;2022-12-18T07:53:46;79.80;;;30.60;;
52934;SDS011;38802;50.198;19.796;2022-12-18T07:59:06;81.80;;;33.00;;
52934;SDS011;38802;50.198;19.796;2022-12-18T08:01:34;73.70;;;29.60;;
52934;SDS011;38802;50.198;19.796;2022-12-18T08:04:02;84.80;;;31.90;;
52934;SDS011;38802;50.198;19.796;2022-12-18T08:06:31;77.50;;;31.50;;
52934;SDS011;38802;50.198;19.796;2022-12-18T08:08:59;75.00;;;32.80;;
52934;SDS011;38802;50.198;19.796;2022-12-18T08:11:27;75.30;;;30.60;;
52934;SDS011;38802;50.198;19.796;2022-12-18T08:13:57;74.50;;;32.20;;
52934;SDS011;38802;50.198;19.796;2022-12-18T08:16:26;68.30;;;31.20;;
52934;SDS011;38802;50.198;19.796;2022-12-18T08:18:55;81.90;;;35.90;;
52934;SDS011;38802;50.198;19.796;2022-12-18T08:21:24;87.80;;;34.50;;
52934;SDS011;38802;50.198;19.796;2022-12-18T08:23:56;80.30;;;33.40;;
52934;SDS011;38802;50.198;19.796;2022-12-18T08:26:26;81.10;;;33.30;;
52934;SDS011;38802;50.198;19.796;2022-12-18T08:28:57;83.10;;;33.20;;
52934;SDS011;38802;50.198;19.796;2022-12-18T08:31:28;75.50;;;32.00;;
52934;SDS011;38802;50.198;19.796;2022-12-18T08:33:57;70.20;;;28.50;;
52934;SDS011;38802;50.198;19.796;2022-12-18T08:36:25;81.30;;;31.80;;
52934;SDS011;38802;50.198;19.796;2022-12-18T08:38:54;71.40;;;30.80;;
52934;SDS011;38802;50.198;19.796;2022-12-18T08:41:23;73.90;;;31.00;;
52934;SDS011;38802;50.198;19.796;2022-12-18T08:43:51;92.30;;;33.40;;
52934;SDS011;38802;50.198;19.796;2022-12-18T08:46:39;76.70;;;33.10;;
52934;SDS011;38802;50.198;19.796;2022-12-18T08:49:09;80.60;;;31.30;;
52934;SDS011;38802;50.198;19.796;2022-12-18T08:51:38;84.00;;;31.90;;
52934;SDS011;38802;50.198;19.796;2022-12-18T08:54:07;82.40;;;32.30;;
52934;SDS011;38802;50.198;19.796;2022-12-18T08:56:38;87.50;;;33.20;;
52934;SDS011;38802;50.198;19.796;2022-12-18T08:59:06;73.60;;;30.90;;
52934;SDS011;38802;50.198;19.796;2022-12-18T09:01:34;74.60;;;30.20;;
52934;SDS011;38802;50.198;19.796;2022-12-18T09:04:03;78.30;;;30.10;;
52934;SDS011;38802;50.198;19.796;2022-12-18T09:06:33;69.30;;;29.00;;
52934;SDS011;38802;50.198;19.796;2022-12-18T09:09:02;79.90;;;31.50;;
52934;SDS011;38802;50.198;19.796;2022-12-18T09:11:31;75.00;;;28.40;;
52934;SDS011;38802;50.198;19.796;2022-12-18T09:14:00;78.70;;;28.90;;
52934;SDS011;38802;50.198;19.796;2022-12-18T09:16:29;68.10;;;28.90;;
52934;SDS011;38802;50.198;19.796;2022-12-18T09:18:59;71.30;;;30.60;;
52934;SDS011;38802;50.198;19.796;2022-12-18T09:21:29;70.30;;;30.00;;
52934;SDS011;38802;50.198;19.796;2022-12-18T09:24:04;72.20;;;29.70;;
52934;SDS011;38802;50.198;19.796;2022-12-18T09:26:35;62.20;;;27.10;;
52934;SDS011;38802;50.198;19.796;2022-12-18T09:29:05;64.30;;;28.30;;
52934;SDS011;38802;50.198;19.796;2022-12-18T09:31:35;67.00;;;29.00;;
52934;SDS011;38802;50.198;19.796;2022-12-18T09:34:04;76.50;;;31.30;;
52934;SDS011;38802;50.198;19.796;2022-12-18T09:36:32;67.40;;;29.80;;
52934;SDS011;38802;50.198;19.796;2022-12-18T09:39:01;65.50;;;28.40;;
52934;SDS011;38802;50.198;19.796;2022-12-18T09:41:51;67.10;;;28.90;;
52934;SDS011;38802;50.198;19.796;2022-12-18T09:44:32;75.80;;;29.30;;
52934;SDS011;38802;50.198;19.796;2022-12-18T09:49:47;59.10;;;25.60;;
52934;SDS011;38802;50.198;19.796;2022-12-18T09:52:30;56.10;;;23.40;;
52934;SDS011;38802;50.198;19.796;2022-12-18T09:55:25;51.20;;;22.70;;
52934;SDS011;38802;50.198;19.796;2022-12-18T10:00:59;53.40;;;23.60;;
52934;SDS011;38802;50.198;19.796;2022-12-18T10:03:27;60.90;;;25.50;;
52934;SDS011;38802;50.198;19.796;2022-12-18T10:06:02;57.80;;;26.20;;
52934;SDS011;38802;50.198;19.796;2022-12-18T10:13:57;49.60;;;24.90;;
52934;SDS011;38802;50.198;19.796;2022-12-18T10:17:00;51.30;;;24.80;;
52934;SDS011;38802;50.198;19.796;2022-12-18T10:19:42;47.70;;;23.60;;
52934;SDS011;38802;50.198;19.796;2022-12-18T10:25:29;52.90;;;24.80;;
52934;SDS011;38802;50.198;19.796;2022-12-18T10:28:00;54.90;;;23.60;;
52934;SDS011;38802;50.198;19.796;2022-12-18T10:30:38;57.40;;;24.20;;
52934;SDS011;38802;50.198;19.796;2022-12-18T10:33:18;51.60;;;24.00;;
52934;SDS011;38802;50.198;19.796;2022-12-18T10:35:49;47.20;;;21.40;;
52934;SDS011;38802;50.198;19.796;2022-12-18T10:43:28;52.50;;;23.20;;
52934;SDS011;38802;50.198;19.796;2022-12-18T10:51:06;60.20;;;25.30;;
52934;SDS011;38802;50.198;19.796;2022-12-18T10:53:40;55.90;;;26.50;;
52934;SDS011;38802;50.198;19.796;2022-12-18T10:56:11;62.00;;;27.20;;
52934;SDS011;38802;50.198;19.796;2022-12-18T10:58:40;52.40;;;26.00;;
52934;SDS011;38802;50.198;19.796;2022-12-18T11:03:46;54.80;;;23.30;;
52934;SDS011;38802;50.198;19.796;2022-12-18T11:06:15;59.50;;;26.10;;
52934;SDS011;38802;50.198;19.796;2022-12-18T11:09:01;55.80;;;25.00;;
52934;SDS011;38802;50.198;19.796;2022-12-18T11:12:25;61.10;;;26.00;;
52934;SDS011;38802;50.198;19.796;2022-12-18T11:14:56;62.10;;;24.70;;
52934;SDS011;38802;50.198;19.796;2022-12-18T11:17:32;54.40;;;24.10;;
52934;SDS011;38802;50.198;19.796;2022-12-18T11:20:07;53.80;;;24.70;;
52934;SDS011;38802;50.198;19.796;2022-12-18T11:22:59;64.20;;;26.30;;
52934;SDS011;38802;50.198;19.796;2022-12-18T11:25:30;55.20;;;23.60;;
52934;SDS011;38802;50.198;19.796;2022-12-18T11:28:04;50.00;;;23.50;;
52934;SDS011;38802;50.198;19.796;2022-12-18T11:31:09;46.40;;;23.90;;
52934;SDS011;38802;50.198;19.796;2022-12-18T11:33:52;56.40;;;27.20;;
52934;SDS011;38802;50.198;19.796;2022-12-18T11:36:46;49.80;;;23.60;;
52934;SDS011;38802;50.198;19.796;2022-12-18T11:39:17;62.20;;;25.30;;
52934;SDS011;38802;50.198;19.796;2022-12-18T11:44:46;70.60;;;24.10;;
52934;SDS011;38802;50.198;19.796;2022-12-18T11:50:03;54.10;;;22.20;;
52934;SDS011;38802;50.198;19.796;2022-12-18T11:52:49;55.70;;;24.60;;
52934;SDS011;38802;50.198;19.796;2022-12-18T11:58:16;49.80;;;21.90;;
52934;SDS011;38802;50.198;19.796;2022-12-18T12:00:49;56.10;;;24.20;;
52934;SDS011;38802;50.198;19.796;2022-12-18T12:03:59;47.00;;;23.50;;
52934;SDS011;38802;50.198;19.796;2022-12-18T12:09:24;55.90;;;22.00;;
52934;SDS011;38802;50.198;19.796;2022-12-18T12:12:16;51.50;;;23.30;;
52934;SDS011;38802;50.198;19.796;2022-12-18T12:40:27;61.30;;;27.80;;
52934;SDS011;38802;50.198;19.796;2022-12-18T12:46:18;56.00;;;25.80;;
52934;SDS011;38802;50.198;19.796;2022-12-18T12:48:57;55.90;;;23.80;;
52934;SDS011;38802;50.198;19.796;2022-12-18T12:51:34;48.10;;;22.90;;
52934;SDS011;38802;50.198;19.796;2022-12-18T12:54:09;51.30;;;24.00;;
52934;SDS011;38802;50.198;19.796;2022-12-18T12:56:48;59.60;;;23.80;;
52934;SDS011;38802;50.198;19.796;2022-12-18T13:02:06;64.00;;;28.90;;
52934;SDS011;38802;50.198;19.796;2022-12-18T13:07:24;57.30;;;26.80;;
52934;SDS011;38802;50.198;19.796;2022-12-18T13:12:57;56.80;;;25.70;;
52934;SDS011;38802;50.198;19.796;2022-12-18T13:34:15;75.30;;;31.90;;
52934;SDS011;38802;50.198;19.796;2022-12-18T13:36:56;73.00;;;33.40;;
52934;SDS011;38802;50.198;19.796;2022-12-18T13:39:46;90.40;;;39.50;;
52934;SDS011;38802;50.198;19.796;2022-12-18T13:45:06;94.10;;;36.00;;
52934;SDS011;38802;50.198;19.796;2022-12-18T13:48:12;83.40;;;35.90;;
52934;SDS011;38802;50.198;19.796;2022-12-18T13:50:48;83.40;;;33.40;;
52934;SDS011;38802;50.198;19.796;2022-12-18T13:53:21;80.50;;;32.90;;
52934;SDS011;38802;50.198;19.796;2022-12-18T13:55:54;78.50;;;33.60;;
52934;SDS011;38802;50.198;19.796;2022-12-18T13:58:23;67.10;;;29.60;;
52934;SDS011;38802;50.198;19.796;2022-12-18T14:00:51;80.30;;;32.40;;
52934;SDS011;38802;50.198;19.796;2022-12-18T14:03:22;79.20;;;32.00;;
52934;SDS011;38802;50.198;19.796;2022-12-18T14:06:05;62.60;;;28.60;;
52934;SDS011;38802;50.198;19.796;2022-12-18T14:08:40;75.00;;;28.10;;
52934;SDS011;38802;50.198;19.796;2022-12-18T14:11:19;69.20;;;24.20;;
52934;SDS011;38802;50.198;19.796;2022-12-18T14:13:53;65.00;;;27.20;;
52934;SDS011;38802;50.198;19.796;2022-12-18T14:16:21;60.50;;;27.30;;
52934;SDS011;38802;50.198;19.796;2022-12-18T14:18:54;64.50;;;28.00;;
52934;SDS011;38802;50.198;19.796;2022-12-18T14:21:45;61.60;;;27.50;;
52934;SDS011;38802;50.198;19.796;2022-12-18T14:24:19;70.20;;;28.10;;
52934;SDS011;38802;50.198;19.796;2022-12-18T14:26:49;68.00;;;30.70;;
52934;SDS011;38802;50.198;19.796;2022-12-18T14:29:28;73.30;;;30.60;;
52934;SDS011;38802;50.198;19.796;2022-12-18T14:34:41;72.90;;;31.90;;
52934;SDS011;38802;50.198;19.796;2022-12-18T14:37:11;81.40;;;34.10;;
52934;SDS011;38802;50.198;19.796;2022-12-18T14:39:51;77.30;;;34.30;;
52934;SDS011;38802;50.198;19.796;2022-12-18T14:42:21;80.60;;;34.00;;
52934;SDS011;38802;50.198;19.796;2022-12-18T14:44:49;83.80;;;32.00;;
52934;SDS011;38802;50.198;19.796;2022-12-18T14:47:37;76.30;;;28.90;;
52934;SDS011;38802;50.198;19.796;2022-12-18T14:50:11;80.90;;;32.50;;
52934;SDS011;38802;50.198;19.796;2022-12-18T14:52:41;84.00;;;35.00;;
52934;SDS011;38802;50.198;19.796;2022-12-18T14:55:19;84.60;;;36.90;;
52934;SDS011;38802;50.198;19.796;2022-12-18T14:57:50;89.60;;;38.20;;
52934;SDS011;38802;50.198;19.796;2022-12-18T15:00:21;81.70;;;32.30;;
52934;SDS011;38802;50.198;19.796;2022-12-18T15:02:54;75.50;;;31.20;;
52934;SDS011;38802;50.198;19.796;2022-12-18T15:05:31;86.70;;;34.60;;
52934;SDS011;38802;50.198;19.796;2022-12-18T15:08:00;77.90;;;31.40;;
52934;SDS011;38802;50.198;19.796;2022-12-18T15:10:30;69.40;;;29.60;;
52934;SDS011;38802;50.198;19.796;2022-12-18T15:18:23;65.70;;;29.20;;
52934;SDS011;38802;50.198;19.796;2022-12-18T15:20:56;72.30;;;29.10;;
52934;SDS011;38802;50.198;19.796;2022-12-18T15:26:20;75.60;;;31.70;;
52934;SDS011;38802;50.198;19.796;2022-12-18T15:28:53;76.60;;;29.90;;
52934;SDS011;38802;50.198;19.796;2022-12-18T15:31:31;74.80;;;30.00;;
52934;SDS011;38802;50.198;19.796;2022-12-18T15:34:10;79.10;;;31.20;;
52934;SDS011;38802;50.198;19.796;2022-12-18T15:36:49;71.20;;;30.30;;
52934;SDS011;38802;50.198;19.796;2022-12-18T15:39:18;77.00;;;30.00;;
52934;SDS011;38802;50.198;19.796;2022-12-18T15:41:46;76.40;;;32.50;;
52934;SDS011;38802;50.198;19.796;2022-12-18T15:44:34;75.90;;;30.40;;
52934;SDS011;38802;50.198;19.796;2022-12-18T15:47:02;84.00;;;32.40;;
52934;SDS011;38802;50.198;19.796;2022-12-18T15:49:30;90.60;;;35.10;;
52934;SDS011;38802;50.198;19.796;2022-12-18T15:51:59;67.00;;;29.90;;
52934;SDS011;38802;50.198;19.796;2022-12-18T15:54:30;72.50;;;31.80;;
52934;SDS011;38802;50.198;19.796;2022-12-18T15:57:17;73.80;;;28.10;;
52934;SDS011;38802;50.198;19.796;2022-12-18T15:59:51;76.50;;;30.90;;
52934;SDS011;38802;50.198;19.796;2022-12-18T16:02:21;77.80;;;28.80;;
52934;SDS011;38802;50.198;19.796;2022-12-18T16:04:51;72.80;;;29.70;;
52934;SDS011;38802;50.198;19.796;2022-12-18T16:07:20;76.90;;;30.70;;
52934;SDS011;38802;50.198;19.796;2022-12-18T16:09:52;85.10;;;32.00;;
52934;SDS011;38802;50.198;19.796;2022-12-18T16:12:22;76.40;;;29.40;;
52934;SDS011;38802;50.198;19.796;2022-12-18T16:14:53;71.60;;;30.30;;
52934;SDS011;38802;50.198;19.796;2022-12-18T16:17:21;77.60;;;30.30;;
52934;SDS011;38802;50.198;19.796;2022-12-18T16:19:49;68.70;;;30.60;;
52934;SDS011;38802;50.198;19.796;2022-12-18T16:22:24;67.80;;;30.30;;
52934;SDS011;38802;50.198;19.796;2022-12-18T16:24:56;69.40;;;26.30;;
52934;SDS011;38802;50.198;19.796;2022-12-18T16:27:25;62.10;;;27.60;;
52934;SDS011;38802;50.198;19.796;2022-12-18T16:29:53;67.80;;;28.10;;
52934;SDS011;38802;50.198;19.796;2022-12-18T16:32:21;74.10;;;29.10;;
52934;SDS011;38802;50.198;19.796;2022-12-18T16:34:51;64.20;;;27.00;;
52934;SDS011;38802;50.198;19.796;2022-12-18T16:37:19;61.40;;;29.00;;
52934;SDS011;38802;50.198;19.796;2022-12-18T16:39:49;81.10;;;32.80;;
52934;SDS011;38802;50.198;19.796;2022-12-18T16:42:18;74.70;;;31.30;;
52934;SDS011;38802;50.198;19.796;2022-12-18T16:44:48;79.40;;;33.00;;
52934;SDS011;38802;50.198;19.796;2022-12-18T16:47:17;95.90;;;34.50;;
52934;SDS011;38802;50.198;19.796;2022-12-18T16:49:46;68.60;;;29.80;;
52934;SDS011;38802;50.198;19.796;2022-12-18T16:52:16;74.50;;;28.30;;
52934;SDS011;38802;50.198;19.796;2022-12-18T16:54:45;72.90;;;29.80;;
52934;SDS011;38802;50.198;19.796;2022-12-18T16:57:14;81.90;;;32.20;;
52934;SDS011;38802;50.198;19.796;2022-12-18T16:59:44;74.00;;;31.40;;
52934;SDS011;38802;50.198;19.796;2022-12-18T17:02:14;85.40;;;33.70;;
52934;SDS011;38802;50.198;19.796;2022-12-18T17:04:54;84.70;;;34.00;;
52934;SDS011;38802;50.198;19.796;2022-12-18T17:07:25;123.70;;;46.80;;
52934;SDS011;38802;50.198;19.796;2022-12-18T17:09:53;126.90;;;50.70;;
52934;SDS011;38802;50.198;19.796;2022-12-18T17:12:22;100.10;;;40.80;;
52934;SDS011;38802;50.198;19.796;2022-12-18T17:14:50;76.50;;;33.30;;